createdAt,value
2023-02-09T00:02:10.875Z,-7.26
2023-02-09T00:07:05.941Z,-5.84
2023-02-09T00:12:16.422Z,-6.34
2023-02-09T00:17:10.222Z,-5.40
2023-02-09T00:22:04.064Z,-5.26
2023-02-09T00:26:58.724Z,-5.66
2023-02-09T00:31:52.707Z,-6.32
2023-02-09T00:36:45.941Z,-6.36
2023-02-09T00:41:56.834Z,-7.03
2023-02-09T00:46:52.268Z,-6.43
2023-02-09T00:51:46.759Z,-6.85
2023-02-09T00:56:40.131Z,-6.41
2023-02-09T01:01:33.534Z,-6.25
2023-02-09T01:06:28.182Z,-6.21
2023-02-09T01:11:28.137Z,-6.30
2023-02-09T01:16:21.428Z,-6.73
2023-02-09T01:21:16.344Z,-6.57
2023-02-09T01:26:12.644Z,-7.29
2023-02-09T01:31:07.346Z,-7.11
2023-02-09T01:36:01.473Z,-6.76
2023-02-09T01:40:54.680Z,-7.31
2023-02-09T01:45:51.316Z,-6.44
2023-02-09T01:50:48.945Z,-6.49
2023-02-09T01:55:48.671Z,-6.65
2023-02-09T02:00:42.013Z,-6.32
2023-02-09T02:05:40.966Z,-6.78
2023-02-09T02:10:34.544Z,-6.82
2023-02-09T02:15:32.640Z,-6.94
2023-02-09T02:20:57.771Z,-7.37
2023-02-09T02:26:25.392Z,-7.09
2023-02-09T02:32:04.816Z,-7.03
2023-02-09T02:37:10.578Z,-7.43
2023-02-09T02:42:27.785Z,-7.97
2023-02-09T02:47:23.854Z,-7.24
2023-02-09T02:52:17.353Z,-7.49
2023-02-09T02:57:14.960Z,-8.21
2023-02-09T03:02:12.932Z,-7.60
2023-02-09T03:07:08.144Z,-7.77
2023-02-09T03:12:14.229Z,-7.35
2023-02-09T03:17:25.582Z,-8.01
2023-02-09T03:22:27.878Z,-7.24
2023-02-09T03:27:26.273Z,-7.01
2023-02-09T03:32:21.785Z,-6.56
2023-02-09T03:37:15.210Z,-6.99
2023-02-09T03:42:10.077Z,-6.89
2023-02-09T03:47:05.741Z,-6.80
2023-02-09T03:52:00.934Z,-6.81
2023-02-09T03:56:54.188Z,-6.86
2023-02-09T04:01:50.242Z,-7.70
2023-02-09T04:06:43.523Z,-7.21
2023-02-09T04:11:36.944Z,-7.47
2023-02-09T04:16:30.280Z,-7.38
2023-02-09T04:21:25.177Z,-7.78
2023-02-09T04:26:18.509Z,-8.43
2023-02-09T04:31:12.482Z,-8.59
2023-02-09T04:36:07.404Z,-8.05
2023-02-09T04:41:03.482Z,-7.75
2023-02-09T04:46:00.188Z,-7.53
2023-02-09T04:50:54.440Z,-8.09
2023-02-09T04:55:49.004Z,-8.04
2023-02-09T05:00:45.166Z,-8.41
2023-02-09T05:05:40.426Z,-7.71
2023-02-09T05:10:34.226Z,-8.41
2023-02-09T05:15:27.461Z,-8.40
2023-02-09T05:20:22.454Z,-7.07
2023-02-09T05:25:15.664Z,-6.54
2023-02-09T05:30:10.130Z,-6.11
2023-02-09T05:35:03.581Z,-6.55
2023-02-09T05:39:58.300Z,-6.64
2023-02-09T05:44:52.691Z,-5.97
2023-02-09T05:49:46.225Z,-5.97
2023-02-09T05:54:39.910Z,-6.42
2023-02-09T05:59:34.732Z,-6.48
2023-02-09T06:04:28.827Z,-7.19
2023-02-09T06:09:22.861Z,-6.54
2023-02-09T06:14:16.348Z,-6.80
2023-02-09T06:19:14.224Z,-7.19
2023-02-09T06:24:07.701Z,-8.34
2023-02-09T06:29:01.082Z,-6.84
2023-02-09T06:33:54.309Z,-6.91
2023-02-09T06:38:48.892Z,-6.96
2023-02-09T06:43:42.272Z,-6.88
2023-02-09T06:48:35.777Z,-6.63
2023-02-09T06:53:29.168Z,-6.54
2023-02-09T06:58:23.846Z,-6.40
2023-02-09T07:03:17.117Z,-6.81
2023-02-09T07:08:10.594Z,-6.36
2023-02-09T07:13:03.872Z,-6.50
2023-02-09T07:17:59.473Z,-5.78
2023-02-09T07:22:52.754Z,-5.92
2023-02-09T07:27:46.393Z,-5.85
2023-02-09T07:32:39.697Z,-4.67
2023-02-09T07:37:35.767Z,-4.20
2023-02-09T07:42:29.204Z,-3.52
2023-02-09T07:47:26.691Z,-3.12
2023-02-09T07:52:19.986Z,-2.85
2023-02-09T07:57:15.277Z,-2.58
2023-02-09T08:02:17.664Z,-2.38
2023-02-09T08:07:10.957Z,-2.06
2023-02-09T08:12:20.207Z,-2.75
2023-02-09T08:17:26.105Z,-2.38
2023-02-09T08:22:19.684Z,-2.12
2023-02-09T08:27:16.180Z,-1.75
2023-02-09T08:32:09.733Z,-2.16
2023-02-09T08:37:07.196Z,-1.40
2023-02-09T08:42:00.469Z,-1.48
2023-02-09T08:46:54.273Z,-1.35
2023-02-09T08:51:47.629Z,-0.79
2023-02-09T08:56:42.888Z,-1.26
2023-02-09T09:01:43.468Z,-0.45
2023-02-09T09:06:36.744Z,-0.24
2023-02-09T09:11:30.060Z,-0.03
2023-02-09T09:16:25.030Z,-0.09
2023-02-09T09:21:19.893Z,-0.17
2023-02-09T09:26:13.375Z,1.48
2023-02-09T09:31:09.911Z,2.58
2023-02-09T09:36:38.700Z,2.80
2023-02-09T09:47:15.803Z,5.39
2023-02-09T09:52:53.934Z,4.71
2023-02-09T09:57:47.819Z,5.90
2023-02-09T10:02:55.913Z,4.42
2023-02-09T10:08:25.712Z,5.24
2023-02-09T10:13:40.090Z,4.22
2023-02-09T10:20:02.515Z,4.68
2023-02-09T10:26:26.403Z,2.93
2023-02-09T10:32:28.922Z,2.62
2023-02-09T10:38:02.043Z,2.91
2023-02-09T10:56:25.004Z,3.63
2023-02-09T11:03:01.053Z,4.02
2023-02-09T11:07:46.616Z,4.51
2023-02-09T11:12:46.285Z,4.36
2023-02-09T11:17:45.865Z,4.58
2023-02-09T11:23:08.518Z,4.14
2023-02-09T11:28:44.733Z,4.69
2023-02-09T11:33:56.505Z,3.95
2023-02-09T11:38:54.373Z,4.82
2023-02-09T11:43:57.989Z,4.09
2023-02-09T11:49:13.794Z,3.44
2023-02-09T11:54:37.158Z,3.47
2023-02-09T11:59:38.234Z,1.85
2023-02-09T12:04:39.112Z,2.56
2023-02-09T12:09:44.970Z,1.57
2023-02-09T12:15:01.769Z,2.28
2023-02-09T12:20:00.672Z,2.14
2023-02-09T12:25:14.215Z,2.10
2023-02-09T12:30:40.904Z,1.91
2023-02-09T12:35:41.433Z,1.55
2023-02-09T12:40:38.824Z,1.79
2023-02-09T12:45:36.212Z,1.83
2023-02-09T12:50:50.058Z,1.90
2023-02-09T12:56:03.067Z,1.70
2023-02-09T13:00:58.600Z,1.39
2023-02-09T13:05:58.539Z,1.51
2023-02-09T13:11:04.752Z,1.17
2023-02-09T13:16:31.299Z,1.57
2023-02-09T13:21:37.562Z,1.61
2023-02-09T13:26:33.931Z,1.12
2023-02-09T13:31:35.031Z,1.60
2023-02-09T13:36:47.506Z,0.11
2023-02-09T13:41:41.838Z,0.78
2023-02-09T13:46:45.116Z,1.58
2023-02-09T13:51:39.950Z,1.18
2023-02-09T13:56:44.952Z,0.71
2023-02-09T14:01:51.904Z,1.44
2023-02-09T14:06:58.477Z,0.84
2023-02-09T14:11:55.053Z,1.14
2023-02-09T14:17:22.760Z,1.32
2023-02-09T14:22:35.706Z,1.23
2023-02-09T14:27:33.049Z,0.70
2023-02-09T14:32:35.298Z,0.18
2023-02-09T14:37:32.106Z,0.81
2023-02-09T14:42:25.710Z,0.69
2023-02-09T14:47:38.739Z,0.18
2023-02-09T14:52:33.813Z,0.90
2023-02-09T14:57:29.873Z,0.75
2023-02-09T15:02:26.377Z,0.25
2023-02-09T15:07:25.328Z,0.57
2023-02-09T15:12:27.597Z,0.66
2023-02-09T15:17:23.744Z,0.28
2023-02-09T15:22:18.302Z,0.13
2023-02-09T15:27:17.968Z,-0.15
2023-02-09T15:32:43.772Z,-0.57
2023-02-09T15:37:42.439Z,-1.09
2023-02-09T15:42:59.399Z,0.10
2023-02-09T15:47:56.821Z,-0.40
2023-02-09T15:52:59.598Z,0.06
2023-02-09T15:58:35.419Z,-0.50
2023-02-09T16:03:38.969Z,-1.33
2023-02-09T16:08:34.624Z,-0.48
2023-02-09T16:13:34.015Z,-0.23
2023-02-09T16:18:31.512Z,-0.66
2023-02-09T16:23:27.465Z,-0.47
2023-02-09T16:28:27.054Z,-0.42
2023-02-09T16:33:20.844Z,-0.53
2023-02-09T16:38:19.166Z,-1.89
2023-02-09T16:43:14.392Z,-1.65
2023-02-09T16:48:17.860Z,-1.26
2023-02-09T16:53:19.262Z,-0.86
2023-02-09T16:58:35.767Z,-1.41
2023-02-09T17:03:46.072Z,-2.72
2023-02-09T17:09:28.646Z,-2.78
2023-02-09T17:14:42.268Z,-1.95
2023-02-09T17:19:50.069Z,-2.06
2023-02-09T17:24:50.989Z,-1.67
2023-02-09T17:29:50.689Z,-2.03
2023-02-09T17:34:44.280Z,-2.21
2023-02-09T17:39:43.498Z,-2.54
2023-02-09T17:44:46.570Z,-1.79
2023-02-09T17:49:47.313Z,-2.74
2023-02-09T17:54:50.161Z,-1.91
2023-02-09T18:05:17.764Z,-2.15
2023-02-09T18:10:30.704Z,-2.92
2023-02-09T18:15:25.612Z,-2.66
2023-02-09T18:20:32.258Z,-4.08
2023-02-09T18:25:36.592Z,-2.57
2023-02-09T18:30:37.443Z,-2.65
2023-02-09T18:35:35.417Z,-3.51
2023-02-09T18:40:32.150Z,-3.31
2023-02-09T18:45:25.887Z,-3.33
2023-02-09T18:50:22.204Z,-3.53
2023-02-09T18:55:18.594Z,-2.85
2023-02-09T19:00:15.019Z,-3.31
2023-02-09T19:05:11.082Z,-2.69
2023-02-09T19:10:06.051Z,-3.29
2023-02-09T19:15:01.538Z,-2.72
2023-02-09T19:20:05.146Z,-2.69
2023-02-09T19:24:59.228Z,-2.79
2023-02-09T19:29:59.201Z,-3.01
2023-02-09T19:34:53.880Z,-3.37
2023-02-09T19:39:56.261Z,-3.38
2023-02-09T19:44:50.458Z,-3.23
2023-02-09T19:50:03.297Z,-3.05
2023-02-09T19:54:58.623Z,-3.02
2023-02-09T19:59:57.051Z,-4.00
2023-02-09T20:04:53.092Z,-3.83
2023-02-09T20:09:47.143Z,-3.90
2023-02-09T20:14:42.054Z,-4.15
2023-02-09T20:19:39.330Z,-4.65
2023-02-09T20:24:32.897Z,-5.25
2023-02-09T20:29:26.173Z,-4.66
2023-02-09T20:34:23.835Z,-5.21
2023-02-09T20:39:18.025Z,-4.51
2023-02-09T20:44:30.921Z,-6.00
2023-02-09T20:49:31.481Z,-5.24
2023-02-09T20:54:25.285Z,-5.25
2023-02-09T20:59:18.713Z,-4.52
2023-02-09T21:04:14.164Z,-4.63
2023-02-09T21:09:10.636Z,-4.68
2023-02-09T21:14:04.486Z,-4.70
2023-02-09T21:18:57.872Z,-5.25
2023-02-09T21:23:51.208Z,-4.99
2023-02-09T21:28:48.373Z,-5.05
2023-02-09T21:33:41.741Z,-5.12
2023-02-09T21:38:41.657Z,-5.89
2023-02-09T21:43:35.198Z,-5.52
2023-02-09T21:48:31.943Z,-4.98
2023-02-09T21:53:25.247Z,-4.71
2023-02-09T21:58:18.533Z,-4.71
2023-02-09T22:03:11.865Z,-5.15
2023-02-09T22:08:06.821Z,-5.36
2023-02-09T22:13:00.160Z,-5.18
2023-02-09T22:17:53.475Z,-5.61
2023-02-09T22:22:46.836Z,-5.63
2023-02-09T22:27:41.452Z,-5.45
2023-02-09T22:32:34.774Z,-5.85
2023-02-09T22:37:28.051Z,-5.82
2023-02-09T22:42:21.297Z,-5.93
2023-02-09T22:47:15.946Z,-6.79
2023-02-09T22:52:10.538Z,-6.77
2023-02-09T22:57:03.944Z,-6.39
2023-02-09T23:01:57.290Z,-6.85
2023-02-09T23:06:51.977Z,-6.75
2023-02-09T23:11:45.528Z,-6.47
2023-02-09T23:16:40.088Z,-6.32
2023-02-09T23:21:35.833Z,-6.41
2023-02-09T23:26:30.657Z,-6.29
2023-02-09T23:31:24.415Z,-6.48
2023-02-09T23:36:19.883Z,-6.50
2023-02-09T23:41:15.121Z,-6.73
2023-02-09T23:46:12.866Z,-6.28
2023-02-09T23:51:07.791Z,-6.67
2023-02-09T23:56:03.865Z,-6.73
